Terminal Aerodrome Forecast
Issued by NWS

Home | Current Version | Previous Version | Text Only | Print | Product List | Glossary On
Versions: 1 2 3 4 5 6 7 8 9 10 11 12 13 14 15 16 17
000
FTUS43 KDTX 290918 AAA
TAFMBS
TAF AMD
KMBS 290918Z 2909/3006 36005KT P6SM -SHRA SCT050 BKN080 OVC100
      TEMPO 2911/2912 5SM -TSRA OVC040CB
     FM291400 05010KT P6SM SCT090 BKN200
     FM291800 06010KT P6SM SCT060 BKN150=

USA.gov is the U.S. government's official web portal to all federal, state and local government web resources and services.